sensor_id;sensor_type;location;lat;lon;timestamp;P1;durP1;ratioP1;P2;durP2;ratioP2
16246;SDS011;8231;50.866;7.944;2024-01-07T00:00:10;6.25;;;4.93;;
16246;SDS011;8231;50.866;7.944;2024-01-07T00:02:39;9.55;;;8.75;;
16246;SDS011;8231;50.866;7.944;2024-01-07T00:05:07;6.45;;;5.82;;
16246;SDS011;8231;50.866;7.944;2024-01-07T00:07:35;7.05;;;6.32;;
16246;SDS011;8231;50.866;7.944;2024-01-07T00:10:04;8.82;;;5.97;;
16246;SDS011;8231;50.866;7.944;2024-01-07T00:12:32;6.22;;;5.72;;
16246;SDS011;8231;50.866;7.944;2024-01-07T00:15:03;6.75;;;5.32;;
16246;SDS011;8231;50.866;7.944;2024-01-07T00:17:32;6.72;;;6.05;;
16246;SDS011;8231;50.866;7.944;2024-01-07T00:20:00;7.25;;;5.70;;
16246;SDS011;8231;50.866;7.944;2024-01-07T00:22:28;6.68;;;6.07;;
16246;SDS011;8231;50.866;7.944;2024-01-07T00:24:56;6.15;;;5.38;;
16246;SDS011;8231;50.866;7.944;2024-01-07T00:27:25;7.72;;;5.20;;
16246;SDS011;8231;50.866;7.944;2024-01-07T00:29:53;5.72;;;5.10;;
16246;SDS011;8231;50.866;7.944;2024-01-07T00:32:22;5.75;;;5.13;;
16246;SDS011;8231;50.866;7.944;2024-01-07T00:34:50;6.78;;;5.72;;
16246;SDS011;8231;50.866;7.944;2024-01-07T00:37:21;7.13;;;6.00;;
16246;SDS011;8231;50.866;7.944;2024-01-07T00:39:50;6.63;;;6.03;;
16246;SDS011;8231;50.866;7.944;2024-01-07T00:42:18;5.78;;;5.20;;
16246;SDS011;8231;50.866;7.944;2024-01-07T00:44:47;6.05;;;5.38;;
16246;SDS011;8231;50.866;7.944;2024-01-07T00:47:16;5.93;;;5.43;;
16246;SDS011;8231;50.866;7.944;2024-01-07T00:49:45;6.93;;;4.63;;
16246;SDS011;8231;50.866;7.944;2024-01-07T00:52:14;7.30;;;4.80;;
16246;SDS011;8231;50.866;7.944;2024-01-07T00:54:42;6.38;;;4.80;;
16246;SDS011;8231;50.866;7.944;2024-01-07T00:57:10;7.25;;;6.05;;
16246;SDS011;8231;50.866;7.944;2024-01-07T00:59:39;5.07;;;4.57;;
16246;SDS011;8231;50.866;7.944;2024-01-07T01:02:07;5.90;;;5.10;;
16246;SDS011;8231;50.866;7.944;2024-01-07T01:04:37;5.68;;;4.90;;
16246;SDS011;8231;50.866;7.944;2024-01-07T01:07:07;6.85;;;4.97;;
16246;SDS011;8231;50.866;7.944;2024-01-07T01:09:36;4.57;;;3.85;;
16246;SDS011;8231;50.866;7.944;2024-01-07T01:12:05;6.63;;;4.32;;
16246;SDS011;8231;50.866;7.944;2024-01-07T01:14:33;4.63;;;4.30;;
16246;SDS011;8231;50.866;7.944;2024-01-07T01:17:02;6.00;;;5.32;;
16246;SDS011;8231;50.866;7.944;2024-01-07T01:19:31;5.20;;;4.70;;
16246;SDS011;8231;50.866;7.944;2024-01-07T01:21:59;5.10;;;4.60;;
16246;SDS011;8231;50.866;7.944;2024-01-07T01:24:29;5.93;;;5.05;;
16246;SDS011;8231;50.866;7.944;2024-01-07T01:26:57;5.07;;;4.57;;
16246;SDS011;8231;50.866;7.944;2024-01-07T01:29:25;5.10;;;4.50;;
16246;SDS011;8231;50.866;7.944;2024-01-07T01:31:54;5.32;;;4.50;;
16246;SDS011;8231;50.866;7.944;2024-01-07T01:34:22;4.90;;;4.50;;
16246;SDS011;8231;50.866;7.944;2024-01-07T01:36:50;5.40;;;4.85;;
16246;SDS011;8231;50.866;7.944;2024-01-07T01:39:18;6.57;;;5.95;;
16246;SDS011;8231;50.866;7.944;2024-01-07T01:41:48;5.30;;;4.80;;
16246;SDS011;8231;50.866;7.944;2024-01-07T01:44:16;5.10;;;4.60;;
16246;SDS011;8231;50.866;7.944;2024-01-07T01:46:44;5.43;;;4.80;;
16246;SDS011;8231;50.866;7.944;2024-01-07T01:49:14;5.35;;;4.85;;
16246;SDS011;8231;50.866;7.944;2024-01-07T01:51:42;5.60;;;5.10;;
16246;SDS011;8231;50.866;7.944;2024-01-07T01:54:11;5.85;;;5.25;;
16246;SDS011;8231;50.866;7.944;2024-01-07T01:56:40;5.18;;;4.68;;
16246;SDS011;8231;50.866;7.944;2024-01-07T01:59:09;6.13;;;5.53;;
16246;SDS011;8231;50.866;7.944;2024-01-07T02:01:39;6.90;;;5.47;;
16246;SDS011;8231;50.866;7.944;2024-01-07T02:04:08;5.75;;;5.15;;
16246;SDS011;8231;50.866;7.944;2024-01-07T02:06:36;6.60;;;5.93;;
16246;SDS011;8231;50.866;7.944;2024-01-07T02:09:05;5.78;;;5.07;;
16246;SDS011;8231;50.866;7.944;2024-01-07T02:11:34;6.00;;;5.40;;
16246;SDS011;8231;50.866;7.944;2024-01-07T02:14:02;5.85;;;5.25;;
16246;SDS011;8231;50.866;7.944;2024-01-07T02:16:31;5.97;;;5.40;;
16246;SDS011;8231;50.866;7.944;2024-01-07T02:19:00;7.45;;;6.95;;
16246;SDS011;8231;50.866;7.944;2024-01-07T02:21:29;15.02;;;14.10;;
16246;SDS011;8231;50.866;7.944;2024-01-07T02:23:57;14.93;;;13.95;;
16246;SDS011;8231;50.866;7.944;2024-01-07T02:26:27;9.32;;;8.57;;
16246;SDS011;8231;50.866;7.944;2024-01-07T02:28:56;10.60;;;9.93;;
16246;SDS011;8231;50.866;7.944;2024-01-07T02:31:24;14.75;;;13.90;;
16246;SDS011;8231;50.866;7.944;2024-01-07T02:33:52;144.18;;;136.55;;
16246;SDS011;8231;50.866;7.944;2024-01-07T02:36:21;11.88;;;11.18;;
16246;SDS011;8231;50.866;7.944;2024-01-07T02:38:49;5.82;;;5.22;;
16246;SDS011;8231;50.866;7.944;2024-01-07T02:41:17;7.15;;;6.55;;
16246;SDS011;8231;50.866;7.944;2024-01-07T02:43:47;43.10;;;41.20;;
16246;SDS011;8231;50.866;7.944;2024-01-07T02:46:15;14.05;;;13.15;;
16246;SDS011;8231;50.866;7.944;2024-01-07T02:48:44;23.00;;;21.73;;
16246;SDS011;8231;50.866;7.944;2024-01-07T02:51:12;14.75;;;13.90;;
16246;SDS011;8231;50.866;7.944;2024-01-07T02:53:40;17.17;;;16.17;;
16246;SDS011;8231;50.866;7.944;2024-01-07T02:56:08;29.55;;;28.15;;
16246;SDS011;8231;50.866;7.944;2024-01-07T02:58:36;9.25;;;8.45;;
16246;SDS011;8231;50.866;7.944;2024-01-07T03:01:09;9.30;;;8.52;;
16246;SDS011;8231;50.866;7.944;2024-01-07T03:03:37;7.35;;;6.47;;
16246;SDS011;8231;50.866;7.944;2024-01-07T03:06:06;9.27;;;8.57;;
16246;SDS011;8231;50.866;7.944;2024-01-07T03:08:34;77.18;;;74.13;;
16246;SDS011;8231;50.866;7.944;2024-01-07T03:11:04;16.20;;;15.18;;
16246;SDS011;8231;50.866;7.944;2024-01-07T03:13:32;23.13;;;21.75;;
16246;SDS011;8231;50.866;7.944;2024-01-07T03:16:00;33.85;;;32.17;;
16246;SDS011;8231;50.866;7.944;2024-01-07T03:18:30;26.63;;;25.27;;
16246;SDS011;8231;50.866;7.944;2024-01-07T03:20:58;47.42;;;45.38;;
16246;SDS011;8231;50.866;7.944;2024-01-07T03:23:27;55.22;;;52.53;;
16246;SDS011;8231;50.866;7.944;2024-01-07T03:25:56;40.05;;;38.30;;
16246;SDS011;8231;50.866;7.944;2024-01-07T03:28:25;33.67;;;32.08;;
16246;SDS011;8231;50.866;7.944;2024-01-07T03:30:53;15.63;;;14.82;;
16246;SDS011;8231;50.866;7.944;2024-01-07T03:33:22;20.58;;;19.45;;
16246;SDS011;8231;50.866;7.944;2024-01-07T03:35:52;8.60;;;7.70;;
16246;SDS011;8231;50.866;7.944;2024-01-07T03:38:20;13.05;;;12.23;;
16246;SDS011;8231;50.866;7.944;2024-01-07T03:40:48;9.85;;;9.05;;
16246;SDS011;8231;50.866;7.944;2024-01-07T03:43:16;20.75;;;19.60;;
16246;SDS011;8231;50.866;7.944;2024-01-07T03:45:44;6.97;;;6.30;;
16246;SDS011;8231;50.866;7.944;2024-01-07T03:48:13;8.35;;;7.55;;
16246;SDS011;8231;50.866;7.944;2024-01-07T03:50:41;8.07;;;7.30;;
16246;SDS011;8231;50.866;7.944;2024-01-07T03:53:10;6.40;;;5.80;;
16246;SDS011;8231;50.866;7.944;2024-01-07T03:55:39;7.55;;;6.78;;
16246;SDS011;8231;50.866;7.944;2024-01-07T03:58:07;17.27;;;16.20;;
16246;SDS011;8231;50.866;7.944;2024-01-07T04:00:36;23.30;;;22.08;;
16246;SDS011;8231;50.866;7.944;2024-01-07T04:03:04;7.65;;;6.25;;
16246;SDS011;8231;50.866;7.944;2024-01-07T04:05:32;7.05;;;6.28;;
16246;SDS011;8231;50.866;7.944;2024-01-07T04:08:00;9.57;;;8.77;;
16246;SDS011;8231;50.866;7.944;2024-01-07T04:10:30;7.72;;;6.93;;
16246;SDS011;8231;50.866;7.944;2024-01-07T04:12:58;52.28;;;49.97;;
16246;SDS011;8231;50.866;7.944;2024-01-07T04:15:26;21.20;;;20.08;;
16246;SDS011;8231;50.866;7.944;2024-01-07T04:17:54;25.30;;;23.98;;
16246;SDS011;8231;50.866;7.944;2024-01-07T04:20:23;9.93;;;9.05;;
16246;SDS011;8231;50.866;7.944;2024-01-07T04:22:51;9.48;;;8.68;;
16246;SDS011;8231;50.866;7.944;2024-01-07T04:25:19;26.05;;;24.77;;
16246;SDS011;8231;50.866;7.944;2024-01-07T04:27:49;7.85;;;7.13;;
16246;SDS011;8231;50.866;7.944;2024-01-07T04:30:17;11.55;;;10.73;;
16246;SDS011;8231;50.866;7.944;2024-01-07T04:32:45;8.65;;;6.38;;
16246;SDS011;8231;50.866;7.944;2024-01-07T04:35:14;22.33;;;21.17;;
16246;SDS011;8231;50.866;7.944;2024-01-07T04:37:42;13.25;;;12.30;;
16246;SDS011;8231;50.866;7.944;2024-01-07T04:40:11;8.68;;;7.88;;
16246;SDS011;8231;50.866;7.944;2024-01-07T04:42:39;8.27;;;7.47;;
16246;SDS011;8231;50.866;7.944;2024-01-07T04:45:09;8.60;;;7.78;;
16246;SDS011;8231;50.866;7.944;2024-01-07T04:47:36;9.57;;;8.68;;
16246;SDS011;8231;50.866;7.944;2024-01-07T04:50:05;9.82;;;8.82;;
16246;SDS011;8231;50.866;7.944;2024-01-07T04:52:34;12.52;;;11.50;;
16246;SDS011;8231;50.866;7.944;2024-01-07T04:55:02;8.85;;;7.95;;
16246;SDS011;8231;50.866;7.944;2024-01-07T04:57:31;7.60;;;6.70;;
16246;SDS011;8231;50.866;7.944;2024-01-07T04:59:59;8.35;;;7.13;;
16246;SDS011;8231;50.866;7.944;2024-01-07T05:02:28;7.10;;;6.40;;
16246;SDS011;8231;50.866;7.944;2024-01-07T05:04:57;12.35;;;11.25;;
16246;SDS011;8231;50.866;7.944;2024-01-07T05:07:25;8.73;;;7.93;;
16246;SDS011;8231;50.866;7.944;2024-01-07T05:09:53;9.18;;;6.25;;
16246;SDS011;8231;50.866;7.944;2024-01-07T05:12:22;8.73;;;7.03;;
16246;SDS011;8231;50.866;7.944;2024-01-07T05:14:51;6.72;;;6.13;;
16246;SDS011;8231;50.866;7.944;2024-01-07T05:17:20;8.05;;;6.50;;
16246;SDS011;8231;50.866;7.944;2024-01-07T05:19:49;7.50;;;6.13;;
16246;SDS011;8231;50.866;7.944;2024-01-07T05:22:17;8.13;;;7.40;;
16246;SDS011;8231;50.866;7.944;2024-01-07T05:24:46;8.10;;;7.15;;
16246;SDS011;8231;50.866;7.944;2024-01-07T05:27:14;8.60;;;7.38;;
16246;SDS011;8231;50.866;7.944;2024-01-07T05:29:44;8.00;;;7.22;;
16246;SDS011;8231;50.866;7.944;2024-01-07T05:32:13;14.00;;;12.88;;
16246;SDS011;8231;50.866;7.944;2024-01-07T05:34:42;8.60;;;7.30;;
16246;SDS011;8231;50.866;7.944;2024-01-07T05:37:11;8.45;;;7.65;;
16246;SDS011;8231;50.866;7.944;2024-01-07T05:39:39;9.05;;;6.10;;
16246;SDS011;8231;50.866;7.944;2024-01-07T05:42:08;7.82;;;7.10;;
16246;SDS011;8231;50.866;7.944;2024-01-07T05:44:36;9.13;;;6.60;;
16246;SDS011;8231;50.866;7.944;2024-01-07T05:47:07;8.70;;;7.88;;
16246;SDS011;8231;50.866;7.944;2024-01-07T05:49:35;9.50;;;8.52;;
16246;SDS011;8231;50.866;7.944;2024-01-07T05:52:04;9.98;;;8.15;;
16246;SDS011;8231;50.866;7.944;2024-01-07T05:54:34;10.52;;;8.65;;
16246;SDS011;8231;50.866;7.944;2024-01-07T05:57:02;10.23;;;8.57;;
16246;SDS011;8231;50.866;7.944;2024-01-07T05:59:31;11.00;;;8.77;;
16246;SDS011;8231;50.866;7.944;2024-01-07T06:01:59;11.80;;;9.73;;
16246;SDS011;8231;50.866;7.944;2024-01-07T06:04:27;14.30;;;10.75;;
16246;SDS011;8231;50.866;7.944;2024-01-07T06:06:56;11.38;;;10.18;;
16246;SDS011;8231;50.866;7.944;2024-01-07T06:09:25;13.68;;;10.95;;
16246;SDS011;8231;50.866;7.944;2024-01-07T06:11:55;12.77;;;11.30;;
16246;SDS011;8231;50.866;7.944;2024-01-07T06:14:23;11.07;;;9.38;;
16246;SDS011;8231;50.866;7.944;2024-01-07T06:16:52;13.52;;;11.40;;
16246;SDS011;8231;50.866;7.944;2024-01-07T06:19:20;13.02;;;10.80;;
16246;SDS011;8231;50.866;7.944;2024-01-07T06:21:49;14.27;;;11.35;;
16246;SDS011;8231;50.866;7.944;2024-01-07T06:24:17;12.20;;;9.95;;
16246;SDS011;8231;50.866;7.944;2024-01-07T06:26:45;13.10;;;10.95;;
16246;SDS011;8231;50.866;7.944;2024-01-07T06:29:14;14.68;;;11.43;;
16246;SDS011;8231;50.866;7.944;2024-01-07T06:31:43;11.98;;;9.98;;
16246;SDS011;8231;50.866;7.944;2024-01-07T06:34:11;12.75;;;10.93;;
16246;SDS011;8231;50.866;7.944;2024-01-07T06:36:41;14.90;;;11.60;;
16246;SDS011;8231;50.866;7.944;2024-01-07T06:39:10;10.93;;;9.77;;
16246;SDS011;8231;50.866;7.944;2024-01-07T06:41:38;16.52;;;13.18;;
16246;SDS011;8231;50.866;7.944;2024-01-07T06:44:06;15.40;;;11.35;;
16246;SDS011;8231;50.866;7.944;2024-01-07T06:46:35;11.93;;;10.32;;
16246;SDS011;8231;50.866;7.944;2024-01-07T06:49:03;13.93;;;10.98;;
16246;SDS011;8231;50.866;7.944;2024-01-07T06:51:32;11.40;;;9.93;;
16246;SDS011;8231;50.866;7.944;2024-01-07T06:54:01;11.27;;;10.15;;
16246;SDS011;8231;50.866;7.944;2024-01-07T06:56:29;14.02;;;10.82;;
16246;SDS011;8231;50.866;7.944;2024-01-07T06:58:57;13.13;;;10.48;;
16246;SDS011;8231;50.866;7.944;2024-01-07T07:01:25;15.27;;;11.23;;
16246;SDS011;8231;50.866;7.944;2024-01-07T07:03:55;13.05;;;10.57;;
16246;SDS011;8231;50.866;7.944;2024-01-07T07:06:24;13.10;;;11.45;;
16246;SDS011;8231;50.866;7.944;2024-01-07T07:08:52;12.27;;;9.93;;
16246;SDS011;8231;50.866;7.944;2024-01-07T07:11:20;12.75;;;9.98;;
16246;SDS011;8231;50.866;7.944;2024-01-07T07:13:48;11.30;;;8.90;;
16246;SDS011;8231;50.866;7.944;2024-01-07T07:16:16;11.65;;;9.90;;
16246;SDS011;8231;50.866;7.944;2024-01-07T07:18:44;10.60;;;9.02;;
16246;SDS011;8231;50.866;7.944;2024-01-07T07:21:14;12.18;;;10.38;;
16246;SDS011;8231;50.866;7.944;2024-01-07T07:23:42;12.52;;;10.98;;
16246;SDS011;8231;50.866;7.944;2024-01-07T07:26:10;13.93;;;10.90;;
16246;SDS011;8231;50.866;7.944;2024-01-07T07:28:38;16.42;;;12.63;;
16246;SDS011;8231;50.866;7.944;2024-01-07T07:31:06;16.58;;;13.02;;
16246;SDS011;8231;50.866;7.944;2024-01-07T07:33:34;17.63;;;12.13;;
16246;SDS011;8231;50.866;7.944;2024-01-07T07:36:04;14.52;;;11.88;;
16246;SDS011;8231;50.866;7.944;2024-01-07T07:38:33;15.90;;;12.65;;
16246;SDS011;8231;50.866;7.944;2024-01-07T07:41:03;13.85;;;11.32;;
16246;SDS011;8231;50.866;7.944;2024-01-07T07:43:31;13.75;;;10.98;;
16246;SDS011;8231;50.866;7.944;2024-01-07T07:45:59;13.10;;;11.05;;
16246;SDS011;8231;50.866;7.944;2024-01-07T07:48:29;15.80;;;12.43;;
16246;SDS011;8231;50.866;7.944;2024-01-07T07:50:58;14.68;;;12.10;;
16246;SDS011;8231;50.866;7.944;2024-01-07T07:53:26;13.30;;;10.68;;
16246;SDS011;8231;50.866;7.944;2024-01-07T07:55:56;13.55;;;11.48;;
16246;SDS011;8231;50.866;7.944;2024-01-07T07:58:24;14.13;;;11.13;;
16246;SDS011;8231;50.866;7.944;2024-01-07T08:00:52;13.65;;;11.18;;
16246;SDS011;8231;50.866;7.944;2024-01-07T08:03:21;16.20;;;12.63;;
16246;SDS011;8231;50.866;7.944;2024-01-07T08:05:50;14.68;;;12.32;;
16246;SDS011;8231;50.866;7.944;2024-01-07T08:08:18;15.65;;;13.13;;
16246;SDS011;8231;50.866;7.944;2024-01-07T08:10:46;16.40;;;13.70;;
16246;SDS011;8231;50.866;7.944;2024-01-07T08:13:16;15.73;;;13.27;;
16246;SDS011;8231;50.866;7.944;2024-01-07T08:15:44;16.25;;;13.63;;
16246;SDS011;8231;50.866;7.944;2024-01-07T08:18:13;14.82;;;13.30;;
16246;SDS011;8231;50.866;7.944;2024-01-07T08:20:42;14.55;;;12.95;;
16246;SDS011;8231;50.866;7.944;2024-01-07T08:23:10;13.90;;;11.98;;
16246;SDS011;8231;50.866;7.944;2024-01-07T08:25:38;19.13;;;14.63;;
16246;SDS011;8231;50.866;7.944;2024-01-07T08:28:07;24.05;;;20.25;;
16246;SDS011;8231;50.866;7.944;2024-01-07T08:30:38;20.08;;;17.98;;
16246;SDS011;8231;50.866;7.944;2024-01-07T08:33:06;20.52;;;17.27;;
16246;SDS011;8231;50.866;7.944;2024-01-07T08:35:34;13.82;;;12.35;;
16246;SDS011;8231;50.866;7.944;2024-01-07T08:38:02;14.35;;;12.85;;
16246;SDS011;8231;50.866;7.944;2024-01-07T08:40:31;15.05;;;12.40;;
16246;SDS011;8231;50.866;7.944;2024-01-07T08:42:59;17.00;;;15.18;;
16246;SDS011;8231;50.866;7.944;2024-01-07T08:45:27;15.65;;;13.50;;
16246;SDS011;8231;50.866;7.944;2024-01-07T08:47:57;15.48;;;13.90;;
16246;SDS011;8231;50.866;7.944;2024-01-07T08:50:25;17.13;;;14.60;;
16246;SDS011;8231;50.866;7.944;2024-01-07T08:52:53;15.70;;;13.90;;
16246;SDS011;8231;50.866;7.944;2024-01-07T08:55:21;14.77;;;13.20;;
16246;SDS011;8231;50.866;7.944;2024-01-07T08:57:50;14.30;;;12.85;;
16246;SDS011;8231;50.866;7.944;2024-01-07T09:00:20;12.02;;;10.85;;
16246;SDS011;8231;50.866;7.944;2024-01-07T09:02:52;12.50;;;10.27;;
16246;SDS011;8231;50.866;7.944;2024-01-07T09:05:21;13.70;;;10.85;;
16246;SDS011;8231;50.866;7.944;2024-01-07T09:07:50;13.48;;;11.93;;
16246;SDS011;8231;50.866;7.944;2024-01-07T09:10:18;15.13;;;11.93;;
16246;SDS011;8231;50.866;7.944;2024-01-07T09:12:48;12.15;;;10.85;;
16246;SDS011;8231;50.866;7.944;2024-01-07T09:15:17;11.68;;;10.48;;
16246;SDS011;8231;50.866;7.944;2024-01-07T09:17:46;9.35;;;8.32;;
16246;SDS011;8231;50.866;7.944;2024-01-07T09:20:14;10.25;;;8.73;;
16246;SDS011;8231;50.866;7.944;2024-01-07T09:22:44;9.70;;;8.70;;
16246;SDS011;8231;50.866;7.944;2024-01-07T09:25:12;10.60;;;9.55;;
16246;SDS011;8231;50.866;7.944;2024-01-07T09:27:41;9.73;;;8.63;;
16246;SDS011;8231;50.866;7.944;2024-01-07T09:30:09;8.93;;;8.10;;
16246;SDS011;8231;50.866;7.944;2024-01-07T09:32:41;10.05;;;8.80;;
16246;SDS011;8231;50.866;7.944;2024-01-07T09:35:09;9.55;;;8.65;;
16246;SDS011;8231;50.866;7.944;2024-01-07T09:37:37;11.30;;;10.07;;
16246;SDS011;8231;50.866;7.944;2024-01-07T09:40:07;10.70;;;9.60;;
16246;SDS011;8231;50.866;7.944;2024-01-07T09:42:36;10.93;;;9.82;;
16246;SDS011;8231;50.866;7.944;2024-01-07T09:45:05;10.13;;;8.75;;
16246;SDS011;8231;50.866;7.944;2024-01-07T09:47:34;11.27;;;10.27;;
16246;SDS011;8231;50.866;7.944;2024-01-07T09:50:03;9.77;;;8.82;;
16246;SDS011;8231;50.866;7.944;2024-01-07T09:52:31;10.02;;;9.10;;
16246;SDS011;8231;50.866;7.944;2024-01-07T09:55:02;10.63;;;9.57;;
16246;SDS011;8231;50.866;7.944;2024-01-07T09:57:32;9.88;;;8.88;;
16246;SDS011;8231;50.866;7.944;2024-01-07T10:00:01;10.07;;;9.07;;
16246;SDS011;8231;50.866;7.944;2024-01-07T10:02:37;9.95;;;9.05;;
16246;SDS011;8231;50.866;7.944;2024-01-07T10:05:08;9.43;;;8.43;;
16246;SDS011;8231;50.866;7.944;2024-01-07T10:07:36;9.38;;;8.32;;
16246;SDS011;8231;50.866;7.944;2024-01-07T10:10:11;9.48;;;8.60;;
16246;SDS011;8231;50.866;7.944;2024-01-07T10:12:43;10.20;;;9.20;;
16246;SDS011;8231;50.866;7.944;2024-01-07T10:15:11;9.90;;;8.90;;
16246;SDS011;8231;50.866;7.944;2024-01-07T10:17:39;10.45;;;9.48;;
16246;SDS011;8231;50.866;7.944;2024-01-07T10:20:10;9.50;;;8.50;;
16246;SDS011;8231;50.866;7.944;2024-01-07T10:22:39;10.73;;;9.70;;
16246;SDS011;8231;50.866;7.944;2024-01-07T10:25:08;10.68;;;9.68;;
16246;SDS011;8231;50.866;7.944;2024-01-07T10:27:36;9.45;;;8.55;;
16246;SDS011;8231;50.866;7.944;2024-01-07T10:30:06;12.02;;;10.73;;
16246;SDS011;8231;50.866;7.944;2024-01-07T10:32:35;8.60;;;7.80;;
16246;SDS011;8231;50.866;7.944;2024-01-07T10:35:08;9.05;;;8.15;;
16246;SDS011;8231;50.866;7.944;2024-01-07T10:37:41;8.30;;;7.50;;
16246;SDS011;8231;50.866;7.944;2024-01-07T10:40:11;10.27;;;8.30;;
16246;SDS011;8231;50.866;7.944;2024-01-07T10:42:40;8.82;;;7.93;;
16246;SDS011;8231;50.866;7.944;2024-01-07T10:45:13;8.70;;;7.90;;
16246;SDS011;8231;50.866;7.944;2024-01-07T10:47:41;9.52;;;8.63;;
16246;SDS011;8231;50.866;7.944;2024-01-07T10:50:16;9.55;;;8.55;;
16246;SDS011;8231;50.866;7.944;2024-01-07T10:52:48;9.48;;;8.52;;
16246;SDS011;8231;50.866;7.944;2024-01-07T10:55:18;9.05;;;8.15;;
16246;SDS011;8231;50.866;7.944;2024-01-07T10:57:48;10.45;;;9.45;;
16246;SDS011;8231;50.866;7.944;2024-01-07T11:00:18;10.70;;;9.70;;
16246;SDS011;8231;50.866;7.944;2024-01-07T11:02:49;9.65;;;8.75;;
16246;SDS011;8231;50.866;7.944;2024-01-07T11:05:24;11.52;;;10.43;;
16246;SDS011;8231;50.866;7.944;2024-01-07T11:08:01;10.85;;;9.52;;
16246;SDS011;8231;50.866;7.944;2024-01-07T11:10:37;10.00;;;9.02;;
16246;SDS011;8231;50.866;7.944;2024-01-07T11:13:34;10.88;;;9.77;;
16246;SDS011;8231;50.866;7.944;2024-01-07T11:16:06;60.72;;;40.88;;
16246;SDS011;8231;50.866;7.944;2024-01-07T11:18:40;251.15;;;227.25;;
16246;SDS011;8231;50.866;7.944;2024-01-07T11:21:20;58.47;;;53.00;;
16246;SDS011;8231;50.866;7.944;2024-01-07T11:23:51;23.52;;;21.77;;
16246;SDS011;8231;50.866;7.944;2024-01-07T11:26:19;12.38;;;9.55;;
16246;SDS011;8231;50.866;7.944;2024-01-07T11:28:49;11.75;;;10.43;;
16246;SDS011;8231;50.866;7.944;2024-01-07T11:31:20;8.60;;;7.72;;
16246;SDS011;8231;50.866;7.944;2024-01-07T11:33:49;8.95;;;8.05;;
16246;SDS011;8231;50.866;7.944;2024-01-07T11:36:18;11.25;;;9.88;;
16246;SDS011;8231;50.866;7.944;2024-01-07T11:38:47;11.13;;;9.40;;
16246;SDS011;8231;50.866;7.944;2024-01-07T11:41:20;11.20;;;9.80;;
16246;SDS011;8231;50.866;7.944;2024-01-07T11:43:53;12.02;;;10.02;;
16246;SDS011;8231;50.866;7.944;2024-01-07T11:46:23;12.02;;;10.73;;
16246;SDS011;8231;50.866;7.944;2024-01-07T11:48:52;12.63;;;9.27;;
16246;SDS011;8231;50.866;7.944;2024-01-07T11:51:25;11.45;;;9.77;;
16246;SDS011;8231;50.866;7.944;2024-01-07T11:53:54;10.10;;;8.85;;
16246;SDS011;8231;50.866;7.944;2024-01-07T11:56:22;11.80;;;9.20;;
16246;SDS011;8231;50.866;7.944;2024-01-07T11:58:51;11.10;;;8.93;;
16246;SDS011;8231;50.866;7.944;2024-01-07T12:01:19;13.57;;;9.93;;
16246;SDS011;8231;50.866;7.944;2024-01-07T12:03:49;9.93;;;8.90;;
16246;SDS011;8231;50.866;7.944;2024-01-07T12:06:18;15.27;;;12.07;;
16246;SDS011;8231;50.866;7.944;2024-01-07T12:08:47;10.88;;;9.57;;
16246;SDS011;8231;50.866;7.944;2024-01-07T12:11:15;11.27;;;9.70;;
16246;SDS011;8231;50.866;7.944;2024-01-07T12:13:44;14.18;;;10.05;;
16246;SDS011;8231;50.866;7.944;2024-01-07T12:16:13;9.88;;;8.88;;
16246;SDS011;8231;50.866;7.944;2024-01-07T12:18:41;11.02;;;9.35;;
16246;SDS011;8231;50.866;7.944;2024-01-07T12:21:11;9.00;;;8.10;;
16246;SDS011;8231;50.866;7.944;2024-01-07T12:23:47;9.95;;;8.68;;
16246;SDS011;8231;50.866;7.944;2024-01-07T12:26:16;10.18;;;9.13;;
16246;SDS011;8231;50.866;7.944;2024-01-07T12:28:51;10.43;;;9.32;;
16246;SDS011;8231;50.866;7.944;2024-01-07T12:31:20;12.38;;;11.15;;
16246;SDS011;8231;50.866;7.944;2024-01-07T12:33:49;10.65;;;9.55;;
16246;SDS011;8231;50.866;7.944;2024-01-07T12:36:21;13.20;;;11.80;;
16246;SDS011;8231;50.866;7.944;2024-01-07T12:38:49;13.45;;;12.07;;
16246;SDS011;8231;50.866;7.944;2024-01-07T12:41:20;10.52;;;9.43;;
16246;SDS011;8231;50.866;7.944;2024-01-07T12:43:49;13.90;;;11.25;;
16246;SDS011;8231;50.866;7.944;2024-01-07T12:46:17;12.10;;;10.82;;
16246;SDS011;8231;50.866;7.944;2024-01-07T12:48:46;12.70;;;11.35;;
16246;SDS011;8231;50.866;7.944;2024-01-07T12:51:14;12.23;;;11.02;;
16246;SDS011;8231;50.866;7.944;2024-01-07T12:53:48;13.25;;;11.98;;
16246;SDS011;8231;50.866;7.944;2024-01-07T12:56:16;11.63;;;9.75;;
16246;SDS011;8231;50.866;7.944;2024-01-07T12:58:44;15.38;;;13.93;;
16246;SDS011;8231;50.866;7.944;2024-01-07T13:01:12;12.50;;;10.23;;
16246;SDS011;8231;50.866;7.944;2024-01-07T13:03:41;20.73;;;19.13;;
16246;SDS011;8231;50.866;7.944;2024-01-07T13:06:09;12.30;;;8.65;;
16246;SDS011;8231;50.866;7.944;2024-01-07T13:08:38;40.42;;;38.28;;
16246;SDS011;8231;50.866;7.944;2024-01-07T13:11:07;15.45;;;14.15;;
16246;SDS011;8231;50.866;7.944;2024-01-07T13:13:40;450.67;;;401.25;;
16246;SDS011;8231;50.866;7.944;2024-01-07T13:16:09;153.98;;;147.25;;
16246;SDS011;8231;50.866;7.944;2024-01-07T13:18:37;382.27;;;360.25;;
16246;SDS011;8231;50.866;7.944;2024-01-07T13:21:06;362.15;;;341.10;;
16246;SDS011;8231;50.866;7.944;2024-01-07T13:23:34;347.73;;;328.92;;
16246;SDS011;8231;50.866;7.944;2024-01-07T13:26:02;323.75;;;308.80;;
16246;SDS011;8231;50.866;7.944;2024-01-07T13:28:34;722.10;;;665.78;;
16246;SDS011;8231;50.866;7.944;2024-01-07T13:31:02;454.40;;;431.83;;
16246;SDS011;8231;50.866;7.944;2024-01-07T13:33:31;68.50;;;65.35;;
16246;SDS011;8231;50.866;7.944;2024-01-07T13:35:59;608.08;;;568.55;;
16246;SDS011;8231;50.866;7.944;2024-01-07T13:38:29;614.10;;;569.80;;
16246;SDS011;8231;50.866;7.944;2024-01-07T13:40:57;555.65;;;525.15;;
16246;SDS011;8231;50.866;7.944;2024-01-07T13:43:25;528.38;;;498.90;;
16246;SDS011;8231;50.866;7.944;2024-01-07T13:45:57;505.38;;;476.98;;
16246;SDS011;8231;50.866;7.944;2024-01-07T13:48:25;451.13;;;428.38;;
16246;SDS011;8231;50.866;7.944;2024-01-07T13:50:53;603.05;;;565.63;;
16246;SDS011;8231;50.866;7.944;2024-01-07T13:53:22;747.30;;;681.20;;
16246;SDS011;8231;50.866;7.944;2024-01-07T13:55:50;522.67;;;494.50;;
16246;SDS011;8231;50.866;7.944;2024-01-07T13:58:18;665.57;;;629.77;;
16246;SDS011;8231;50.866;7.944;2024-01-07T14:00:47;684.50;;;635.00;;
16246;SDS011;8231;50.866;7.944;2024-01-07T14:03:18;624.30;;;587.07;;
16246;SDS011;8231;50.866;7.944;2024-01-07T14:05:47;675.40;;;605.53;;
16246;SDS011;8231;50.866;7.944;2024-01-07T14:08:15;718.42;;;665.50;;
16246;SDS011;8231;50.866;7.944;2024-01-07T14:10:43;741.00;;;685.72;;
16246;SDS011;8231;50.866;7.944;2024-01-07T14:13:13;998.72;;;913.60;;
16246;SDS011;8231;50.866;7.944;2024-01-07T14:15:42;832.20;;;775.47;;
16246;SDS011;8231;50.866;7.944;2024-01-07T14:18:10;893.90;;;820.03;;
16246;SDS011;8231;50.866;7.944;2024-01-07T14:20:43;770.33;;;710.03;;
16246;SDS011;8231;50.866;7.944;2024-01-07T14:23:12;737.47;;;687.70;;
16246;SDS011;8231;50.866;7.944;2024-01-07T14:25:40;742.90;;;694.22;;
16246;SDS011;8231;50.866;7.944;2024-01-07T14:28:08;784.13;;;731.20;;
16246;SDS011;8231;50.866;7.944;2024-01-07T14:30:37;769.67;;;712.13;;
16246;SDS011;8231;50.866;7.944;2024-01-07T14:33:05;1124.93;;;967.20;;
16246;SDS011;8231;50.866;7.944;2024-01-07T14:35:34;880.07;;;818.50;;
16246;SDS011;8231;50.866;7.944;2024-01-07T14:38:04;719.63;;;677.97;;
16246;SDS011;8231;50.866;7.944;2024-01-07T14:40:34;839.17;;;778.30;;
16246;SDS011;8231;50.866;7.944;2024-01-07T14:43:02;779.07;;;708.10;;
16246;SDS011;8231;50.866;7.944;2024-01-07T14:45:31;848.80;;;785.97;;
16246;SDS011;8231;50.866;7.944;2024-01-07T14:48:00;807.13;;;744.10;;
16246;SDS011;8231;50.866;7.944;2024-01-07T14:50:29;755.77;;;698.10;;
16246;SDS011;8231;50.866;7.944;2024-01-07T14:53:08;890.47;;;811.15;;